Latest Weather Observations for Charleville

IDQ60801

Issued at 10:32 am EST Saturday 28 February 2015 (issued every 30 minutes, with the page automatically refreshed every 10 minutes)

About weather observations | Map of weather stations | Latest weather observations for QLD | Other Formats
Station Details ID: 044021 Name: CHARLEVILLE AERO Lat: -26.41 Lon: 146.26 Height: 301.6 m
Data from the previous 72 hours. | See also: Recent months at Charleville
Date/Time
EST
Temp
°C
App
Temp
°C
Dew
Point
Rel
Hum
%
Delta-T
°C
Wind Press
QNH
hPa
Press
MSL
hPa
Rain
since 9 am
mm
Dir
 
Spd
km/h
Gust
km/h
Spd
kts
Gust
kts
28/10:30am 33.6 33.1 18.6 41 9.9 N 19 28 10 15 1007.0 - 0.0
28/10:00am 32.6 31.8 18.4 43 9.3 N 20 30 11 16 1007.4 - 0.0
28/09:30am 31.9 31.2 18.6 45 8.7 N 20 32 11 17 1007.7 - 0.0
28/09:00am 30.1 28.1 18.4 49 7.6 N 26 32 14 17 1007.8 1005.9 0.0
28/08:30am 29.4 28.7 18.6 52 7.0 N 20 26 11 14 1007.4 - 0.0
28/08:00am 28.1 26.2 18.6 56 6.2 N 26 33 14 18 1007.2 - 0.0
28/07:00am 26.3 26.3 18.1 60 5.2 NNE 15 19 8 10 1006.6 - 0.0
28/06:30am 25.7 26.0 17.8 61 5.0 NNE 13 19 7 10 1006.4 - 0.0
28/06:00am 25.5 25.6 17.4 61 5.1 NNE 13 17 7 9 1006.0 1004.2 0.0
28/05:30am 25.9 25.9 17.1 58 5.5 NNE 13 17 7 9 1005.6 - 0.0
28/05:00am 26.4 26.3 16.9 56 6.0 NNE 13 17 7 9 1005.5 - 0.0
28/04:30am 27.0 26.5 16.8 53 6.4 NNE 15 20 8 11 1005.3 - 0.0
28/04:00am 27.2 25.8 16.6 52 6.7 NNE 19 28 10 15 1005.3 - 0.0
28/03:30am 26.6 25.0 12.8 42 8.1 NE 13 17 7 9 1005.3 - 0.0
28/03:00am 26.2 23.7 8.2 32 9.8 ENE 11 13 6 7 1005.5 1003.7 0.0
28/02:30am 26.5 23.7 6.8 28 10.5 ENE 11 15 6 8 1005.6 - 0.0
28/02:00am 25.2 22.7 6.6 30 9.8 S 9 11 5 6 1005.5 - 0.0
28/01:30am 25.4 22.8 6.1 29 10.1 S 9 11 5 6 1005.8 - 0.0
28/01:00am 24.6 22.2 6.8 32 9.4 SSE 9 9 5 5 1006.1 - 0.0
28/12:30am 25.3 23.0 7.4 32 9.6 SE 9 11 5 6 1006.3 - 0.0
28/12:00am 26.6 24.2 7.2 29 10.5 S 9 11 5 6 1006.3 1004.5 0.0
 
Date/Time
EST
Temp
°C
App
Temp
°C
Dew
Point
Rel
Hum
%
Delta-T
°C
Wind Press
QNH
hPa
Press
MSL
hPa
Rain
since 9 am
mm
Dir
 
Spd
km/h
Gust
km/h
Spd
kts
Gust
kts
27/11:00pm 28.0 26.1 7.4 27 11.2 SSE 7 11 4 6 1006.5 - 0.0
27/10:30pm 29.5 27.1 6.9 24 12.3 S 9 11 5 6 1006.3 - 0.0
27/10:00pm 30.2 27.2 6.2 22 12.9 S 11 13 6 7 1006.2 - 0.0
27/09:30pm 29.6 26.6 5.8 22 12.7 SSW 11 15 6 8 1006.0 - 0.0
27/09:00pm 28.3 25.7 5.9 24 11.9 SSW 9 13 5 7 1005.6 1003.8 0.0
27/08:30pm 28.6 27.3 4.0 20 12.7 CALM 0 0 0 0 1005.3 - 0.0
27/08:00pm 29.7 27.0 3.8 19 13.4 WSW 7 9 4 5 1004.9 - 0.0
27/07:30pm 31.1 28.6 4.8 19 14.0 WSW 7 9 4 5 1004.3 - 0.0
27/07:00pm 33.5 30.5 2.0 13 16.1 WSW 7 9 4 5 1003.8 - 0.0
27/06:30pm 36.2 32.3 -1.4 9 18.6 W 9 13 5 7 1003.5 - 0.0
27/06:00pm 37.5 32.8 -5.5 6 20.1 WSW 11 15 6 8 1003.3 1001.5 0.0
27/05:30pm 38.0 32.8 -6.4 6 20.5 SW 13 20 7 11 1003.2 - 0.0
27/05:00pm 38.2 32.9 -7.8 5 20.8 SW 13 22 7 12 1003.0 - 0.0
27/04:30pm 38.3 32.7 -6.8 5 20.7 WSW 15 22 8 12 1003.0 - 0.0
27/04:00pm 38.1 33.3 -2.4 7 19.9 SW 13 19 7 10 1003.0 - 0.0
27/03:30pm 38.4 31.6 -5.1 6 20.5 SSW 22 32 12 17 1003.2 - 0.0
27/03:00pm 38.2 34.4 -0.8 8 19.7 ENE 9 19 5 10 1003.5 1001.7 0.0
27/02:30pm 38.4 35.1 -1.5 8 19.9 NW 6 17 3 9 1003.8 - 0.0
27/02:00pm 37.6 31.5 -2.6 8 19.6 WNW 20 28 11 15 1004.4 - 0.0
27/01:30pm 38.0 33.0 -4.4 6 20.2 SW 13 28 7 15 1004.8 - 0.0
27/01:00pm 37.4 33.5 1.0 10 18.8 WSW 11 30 6 16 1005.2 - 0.0
27/12:30pm 36.6 30.8 -4.5 7 19.3 SSW 17 30 9 16 1005.8 - 0.0
27/12:00pm 35.3 31.7 0.9 11 17.5 W 9 19 5 10 1006.2 1004.4 0.0
27/11:30am 35.7 31.9 1.9 12 17.5 NNW 11 17 6 9 1006.6 - 0.0
27/11:00am 34.9 33.1 7.1 18 15.6 NNW 6 11 3 6 1007.0 - 0.0
27/10:30am 33.0 29.9 3.4 15 15.5 NNW 9 17 5 9 1007.3 - 0.0
27/10:00am 32.0 28.6 1.8 14 15.3 NW 9 13 5 7 1007.5 - 0.0
27/09:30am 30.5 28.0 1.8 16 14.4 NNW 4 11 2 6 1007.7 - 0.0
27/09:00am 29.3 26.8 3.5 19 13.2 NW 6 11 3 6 1007.7 1005.8 0.0
27/08:30am 28.1 26.0 3.9 21 12.4 N 4 7 2 4 1007.5 - 0.0
27/08:00am 25.8 24.0 3.5 23 11.2 N 2 9 1 5 1007.3 - 0.0
27/07:30am 23.7 22.3 5.4 30 9.4 WSW 2 9 1 5 1007.2 - 0.0
27/07:00am 19.7 19.1 7.4 45 6.4 CALM 0 6 0 3 1007.0 - 0.0
27/06:30am 17.9 17.3 7.5 50 5.3 CALM 0 0 0 0 1006.6 - 0.0
27/06:00am 17.7 16.4 6.1 46 5.8 NNE 2 9 1 5 1006.2 1004.4 0.0
27/05:30am 18.1 17.3 6.3 46 5.9 CALM 0 0 0 0 1005.9 - 0.0
27/05:00am 18.8 17.8 5.5 41 6.6 CALM 0 2 0 1 1005.6 - 0.0
27/04:30am 18.9 17.9 5.8 42 6.5 CALM 0 0 0 0 1005.4 - 0.0
27/04:00am 19.1 18.4 7.0 45 6.2 CALM 0 0 0 0 1005.3 - 0.0
27/03:30am 19.7 18.8 6.0 40 6.9 CALM 0 0 0 0 1005.4 - 0.0
27/03:00am 19.7 19.1 7.5 45 6.4 CALM 0 0 0 0 1005.6 1003.8 0.0
27/02:30am 20.5 19.6 6.1 39 7.3 CALM 0 0 0 0 1005.7 - 0.0
27/02:00am 21.2 20.0 4.4 33 8.3 CALM 0 0 0 0 1005.7 - 0.0
27/01:30am 22.1 21.2 6.1 35 8.2 CALM 0 0 0 0 1006.0 - 0.0
27/01:00am 23.1 21.9 4.7 30 9.3 CALM 0 0 0 0 1006.1 - 0.0
27/12:30am 24.5 22.2 4.8 28 10.0 E 6 7 3 4 1006.4 - 0.0
27/12:00am 26.7 23.5 2.8 21 11.9 S 9 11 5 6 1006.2 1004.4 0.0
 
Date/Time
EST
Temp
°C
App
Temp
°C
Dew
Point
Rel
Hum
%
Delta-T
°C
Wind Press
QNH
hPa
Press
MSL
hPa
Rain
since 9 am
mm
Dir
 
Spd
km/h
Gust
km/h
Spd
kts
Gust
kts
26/11:30pm 25.7 23.0 5.5 27 10.5 SSW 9 11 5 6 1006.3 - 0.0
26/11:00pm 26.4 24.4 7.1 29 10.3 SSW 7 9 4 5 1006.3 - 0.0
26/10:30pm 28.3 26.0 5.6 23 12.0 SSW 7 9 4 5 1006.1 - 0.0
26/10:00pm 30.0 26.5 3.5 18 13.6 S 11 13 6 7 1005.9 - 0.0
26/09:30pm 30.7 26.8 3.4 17 14.1 S 13 15 7 8 1005.6 - 0.0
26/09:00pm 31.2 28.0 4.9 19 14.0 S 11 13 6 7 1005.4 1003.6 0.0
26/08:30pm 32.4 29.1 4.7 17 14.7 S 11 13 6 7 1005.1 - 0.0
26/08:00pm 33.2 30.5 5.7 18 14.9 S 9 15 5 8 1004.6 - 0.0
26/07:30pm 34.2 30.5 4.6 15 15.9 SSW 13 17 7 9 1004.3 - 0.0
26/07:00pm 35.2 30.5 5.1 15 16.4 S 19 26 10 14 1003.8 - 0.0
26/06:30pm 36.2 32.1 2.2 12 17.7 SW 13 17 7 9 1003.3 - 0.0
26/06:00pm 37.5 32.5 1.5 10 18.8 SW 17 30 9 16 1003.0 1001.2 0.0
26/05:30pm 38.5 32.3 -0.1 9 19.7 SW 22 30 12 16 1002.7 - 0.0
26/05:00pm 39.3 33.4 -2.1 7 20.6 SW 19 32 10 17 1002.5 - 0.0
26/04:30pm 39.2 32.7 -2.4 7 20.6 SW 22 32 12 17 1002.5 - 0.0
26/04:00pm 39.7 34.9 5.5 12 19.1 WSW 20 30 11 16 1002.5 - 0.0
26/03:30pm 38.8 35.8 9.1 16 17.4 WNW 15 26 8 14 1002.9 - 0.0
26/03:00pm 38.1 35.6 9.7 18 16.8 WNW 13 22 7 12 1003.4 1001.6 0.0
26/02:30pm 37.7 34.4 9.6 18 16.5 NW 17 26 9 14 1003.7 - 0.0
26/02:00pm 37.1 35.1 12.8 23 14.9 WNW 15 28 8 15 1004.5 - 0.0
26/01:30pm 38.0 35.1 12.9 22 15.5 W 20 32 11 17 1005.1 - 0.0
26/01:00pm 36.4 35.2 13.9 26 14.0 NNW 13 24 7 13 1005.5 - 0.0
26/12:30pm 36.1 34.1 13.9 26 13.8 W 17 20 9 11 1006.1 - 0.0
26/12:00pm 35.2 31.5 13.9 27 13.2 NNW 26 32 14 17 1006.8 1005.0 0.0
26/11:30am 35.2 34.1 14.3 28 13.0 NW 13 26 7 14 1007.3 - 0.0
26/11:00am 34.3 30.0 14.3 30 12.4 NNW 30 41 16 22 1007.8 - 0.0
26/10:30am 33.6 29.0 14.5 31 11.9 NNW 32 50 17 27 1008.2 - 0.0
26/10:24am 33.5 29.6 14.5 31 11.8 NNW 28 50 15 27 1008.2 - 0.0
26/10:00am 32.8 28.3 15.0 34 11.1 NW 32 41 17 22 1008.3 - 0.0
26/09:30am 31.6 27.6 15.3 37 10.2 NNW 30 43 16 23 1008.5 - 0.0
26/09:00am 30.7 26.2 15.5 39 9.5 NNW 33 43 18 23 1008.6 1006.8 0.0
26/08:30am 30.1 27.7 16.4 43 8.7 N 24 37 13 20 1008.7 - 0.0
26/08:00am 29.0 26.1 17.0 48 7.6 N 28 35 15 19 1008.7 - 0.0
26/07:30am 28.0 26.2 16.9 51 7.0 N 22 28 12 15 1008.7 - 0.0
26/07:00am 26.4 26.2 16.6 55 6.1 N 13 17 7 9 1008.3 - 0.0
26/06:30am 25.3 25.7 16.2 57 5.6 N 9 13 5 7 1007.9 - 0.0
26/06:00am 25.1 25.4 15.9 56 5.7 NNE 9 11 5 6 1007.4 1005.6 0.0
26/05:30am 25.3 25.2 15.9 56 5.8 NNE 11 13 6 7 1007.2 - 0.0
26/05:00am 25.5 25.8 16.1 56 5.8 N 9 11 5 6 1007.1 - 0.0
26/04:30am 25.8 26.1 15.9 54 6.1 N 9 11 5 6 1006.8 - 0.0
26/04:00am 26.2 25.7 15.9 53 6.4 N 13 15 7 8 1006.8 - 0.0
26/03:30am 26.6 26.1 16.0 52 6.6 NNE 13 19 7 10 1006.7 - 0.0
26/03:00am 26.5 26.1 16.2 53 6.4 NNE 13 15 7 8 1006.9 1005.1 0.0
26/02:30am 26.8 26.5 16.4 53 6.5 NNE 13 17 7 9 1007.0 - 0.0
26/02:00am 27.1 26.7 16.3 51 6.7 NNE 13 19 7 10 1007.3 - 0.0
26/01:30am 27.2 27.3 16.4 51 6.8 N 11 13 6 7 1007.5 - 0.0
26/01:00am 27.4 27.5 16.6 51 6.8 NNE 11 15 6 8 1007.8 - 0.0
26/12:30am 27.7 27.4 16.4 50 7.1 NE 13 17 7 9 1008.0 - 0.0
26/12:00am 27.8 27.9 16.4 50 7.2 ENE 11 17 6 9 1008.2 1006.3 0.0
 
Date/Time
EST
Temp
°C
App
Temp
°C
Dew
Point
Rel
Hum
%
Delta-T
°C
Wind Press
QNH
hPa
Press
MSL
hPa
Rain
since 9 am
mm
Dir
 
Spd
km/h
Gust
km/h
Spd
kts
Gust
kts
25/11:30pm 28.0 26.4 16.0 48 7.5 ENE 19 28 10 15 1008.5 - 0.0
25/11:00pm 28.6 25.2 15.7 45 8.0 E 28 37 15 20 1008.6 - 0.0
25/10:30pm 29.9 26.1 14.8 39 9.3 E 28 41 15 22 1008.7 - 0.0
25/10:00pm 31.0 29.4 14.9 37 10.0 E 17 24 9 13 1008.4 - 0.0
25/09:30pm 31.5 29.8 14.6 36 10.5 E 17 20 9 11 1008.4 - 0.0
25/09:00pm 32.0 30.8 13.9 33 11.1 NE 13 22 7 12 1007.7 1005.8 0.0
25/08:30pm 32.4 31.1 12.6 30 11.9 ENE 11 20 6 11 1007.4 - 0.0
25/08:00pm 32.8 32.2 12.3 28 12.3 E 7 13 4 7 1006.6 - 0.0
25/07:30pm 33.5 33.2 13.4 29 12.3 ENE 7 11 4 6 1006.1 - 0.0
25/07:00pm 34.3 32.0 11.9 25 13.5 ENE 15 19 8 10 1006.0 - 0.0
25/06:30pm 35.2 30.6 11.1 23 14.4 E 26 35 14 19 1005.5 - 0.0
25/06:00pm 38.7 34.6 4.6 12 18.8 S 15 24 8 13 1005.1 1003.2 0.0
25/05:30pm 39.4 35.7 4.5 11 19.2 S 13 20 7 11 1004.7 - 0.0
25/05:00pm 39.6 36.4 6.7 13 18.7 SSW 13 22 7 12 1004.7 - 0.0
25/04:30pm 39.7 35.5 5.8 12 19.0 W 17 28 9 15 1004.7 - 0.0
25/04:00pm 39.5 35.1 7.6 14 18.4 SW 20 28 11 15 1005.2 - 0.0
25/03:30pm 38.8 36.4 10.1 17 17.1 W 13 17 7 9 1005.6 - 0.0
25/03:00pm 38.8 36.9 10.5 18 17.0 W 11 20 6 11 1006.2 1004.4 0.0
25/02:30pm 38.8 35.5 9.6 17 17.3 WSW 17 26 9 14 1006.6 - 0.0
25/02:00pm 38.9 36.8 11.0 18 16.8 N 13 32 7 17 1007.1 - 0.0
25/01:30pm 39.0 38.2 14.0 22 15.7 N 11 28 6 15 1007.9 - 0.0
25/01:00pm 37.3 36.2 15.2 27 14.1 NW 15 20 8 11 1008.6 - 0.0
25/12:30pm 36.8 37.3 15.1 27 13.8 NNW 6 13 3 7 1009.1 - 0.0
25/12:00pm 36.7 36.6 16.1 29 13.3 N 11 17 6 9 1009.7 1007.9 0.0
25/11:30am 36.0 36.4 16.4 31 12.6 NNW 9 22 5 12 1010.3 - 0.0
25/11:00am 35.2 35.2 17.2 34 11.7 N 13 22 7 12 1010.9 - 0.0

Other Formats:

Comma delimited format used in spreadsheet applications
http://www.bom.gov.au/fwo/IDQ60801/IDQ60801.94510.axf

JavaScript Object Notation format (JSON) in row-major order
http://www.bom.gov.au/fwo/IDQ60801/IDQ60801.94510.json